Time;durP1;ratioP1;P1;durP2;ratioP2;P2;SDS_P1;SDS_P2;PMS_P1;PMS_P2;Temp;Humidity;BMP_temperature;BMP_pressure;BME280_temperature;BME280_humidity;BME280_pressure;Samples;Min_cycle;Max_cycle;Signal;HPM_P1;HPM_P2
2023/02/17 00:01:02;;;;;;;10.35;5.65;;;;;;;;;;5099571;28;20044;-71
2023/02/17 00:03:28;;;;;;;14.65;6.25;;;;;;;;;;5099016;28;20071;-73
2023/02/17 00:05:55;;;;;;;11.30;6.25;;;;;;;;;;5099771;28;20047;-72
2023/02/17 00:08:23;;;;;;;11.00;5.85;;;;;;;;;;5098802;28;20036;-70
2023/02/17 00:10:57;;;;;;;13.68;7.05;;;;;;;;;;5098606;28;20065;-71
2023/02/17 00:13:24;;;;;;;14.18;7.30;;;;;;;;;;5098932;28;20541;-71
2023/02/17 00:15:50;;;;;;;13.98;6.45;;;;;;;;;;5099722;28;20036;-71
2023/02/17 00:18:18;;;;;;;14.13;6.43;;;;;;;;;;5099398;28;20051;-73
2023/02/17 00:20:45;;;;;;;12.93;6.72;;;;;;;;;;5099209;28;20047;-71
2023/02/17 00:23:12;;;;;;;15.38;7.05;;;;;;;;;;5098506;28;20052;-72
2023/02/17 00:25:39;;;;;;;13.05;6.80;;;;;;;;;;5098809;28;20055;-72
2023/02/17 00:28:05;;;;;;;11.95;6.38;;;;;;;;;;5099346;28;20043;-73
2023/02/17 00:30:32;;;;;;;15.00;6.75;;;;;;;;;;5099117;28;20090;-73
2023/02/17 00:32:59;;;;;;;13.43;6.35;;;;;;;;;;5097465;28;20051;-73
2023/02/17 00:35:27;;;;;;;13.70;6.80;;;;;;;;;;5098890;28;20134;-71
2023/02/17 00:37:54;;;;;;;13.15;6.97;;;;;;;;;;5099564;28;20071;-72
2023/02/17 00:40:21;;;;;;;14.05;6.50;;;;;;;;;;5099995;28;20054;-71
2023/02/17 00:42:47;;;;;;;12.45;6.72;;;;;;;;;;5098662;28;20052;-71
2023/02/17 00:45:14;;;;;;;13.38;5.82;;;;;;;;;;5098602;28;20043;-71
2023/02/17 00:47:41;;;;;;;13.00;7.03;;;;;;;;;;5098651;28;20047;-70
2023/02/17 00:50:08;;;;;;;12.63;6.38;;;;;;;;;;5098718;28;20047;-71
2023/02/17 00:52:36;;;;;;;12.52;6.65;;;;;;;;;;5097740;28;20040;-71
2023/02/17 00:55:03;;;;;;;16.50;6.90;;;;;;;;;;5099213;28;20533;-71
2023/02/17 00:57:31;;;;;;;16.15;7.07;;;;;;;;;;5098768;28;20131;-72
2023/02/17 00:59:58;;;;;;;13.85;7.30;;;;;;;;;;5097933;28;20044;-72
2023/02/17 01:02:24;;;;;;;13.90;6.88;;;;;;;;;;5098019;28;20050;-72
2023/02/17 01:04:51;;;;;;;14.82;7.22;;;;;;;;;;5098039;28;20559;-72
2023/02/17 01:07:17;;;;;;;13.32;7.13;;;;;;;;;;5099041;28;20047;-74
2023/02/17 01:09:45;;;;;;;13.57;6.93;;;;;;;;;;5098091;28;20055;-72
2023/02/17 01:12:13;;;;;;;14.95;7.55;;;;;;;;;;5098491;28;20044;-71
2023/02/17 01:14:39;;;;;;;14.90;7.75;;;;;;;;;;5100484;28;20130;-72
2023/02/17 01:17:06;;;;;;;14.40;7.47;;;;;;;;;;5099703;28;20105;-70
2023/02/17 01:19:33;;;;;;;14.75;7.07;;;;;;;;;;5099983;28;20532;-71
2023/02/17 01:21:59;;;;;;;12.82;7.15;;;;;;;;;;5098431;28;20062;-73
2023/02/17 01:24:26;;;;;;;15.02;6.63;;;;;;;;;;5098541;28;20046;-72
2023/02/17 01:26:54;;;;;;;15.65;7.03;;;;;;;;;;5098379;28;20039;-72
2023/02/17 01:29:21;;;;;;;12.77;6.90;;;;;;;;;;5098527;28;20406;-73
2023/02/17 01:31:47;;;;;;;14.13;7.25;;;;;;;;;;5098079;28;20138;-73
2023/02/17 01:34:14;;;;;;;15.00;7.82;;;;;;;;;;5099684;28;20055;-73
2023/02/17 01:36:40;;;;;;;14.68;7.38;;;;;;;;;;5098481;28;20048;-71
2023/02/17 01:39:07;;;;;;;13.85;6.22;;;;;;;;;;5098124;28;20058;-73
2023/02/17 01:41:35;;;;;;;13.73;6.60;;;;;;;;;;5097241;28;20069;-73
2023/02/17 01:44:15;;;;;;;12.55;7.47;;;;;;;;;;5098430;28;20131;-73
2023/02/17 01:46:43;;;;;;;14.75;7.80;;;;;;;;;;5098095;28;20555;-72
2023/02/17 01:49:19;;;;;;;12.75;6.47;;;;;;;;;;5097740;28;20044;-72
2023/02/17 01:51:48;;;;;;;15.98;7.40;;;;;;;;;;5097865;28;20044;-72
2023/02/17 01:54:18;;;;;;;14.55;7.05;;;;;;;;;;5100063;28;20127;-72
2023/02/17 01:56:47;;;;;;;14.77;7.60;;;;;;;;;;5097879;28;20521;-70
2023/02/17 01:59:18;;;;;;;13.48;7.25;;;;;;;;;;5100300;28;20108;-72
2023/02/17 02:01:46;;;;;;;14.70;7.70;;;;;;;;;;5101673;28;20048;-72
2023/02/17 02:04:14;;;;;;;13.32;6.57;;;;;;;;;;5101540;28;20040;-71
2023/02/17 02:06:44;;;;;;;13.05;6.20;;;;;;;;;;5101494;28;20733;-69
2023/02/17 02:09:16;;;;;;;15.48;6.85;;;;;;;;;;5100937;28;20131;-73
2023/02/17 02:11:43;;;;;;;13.55;6.90;;;;;;;;;;5102046;28;20040;-73
2023/02/17 02:14:12;;;;;;;13.35;6.80;;;;;;;;;;5101604;28;20042;-73
2023/02/17 02:16:45;;;;;;;12.52;6.32;;;;;;;;;;5101278;28;20136;-71
2023/02/17 02:19:41;;;;;;;11.85;6.13;;;;;;;;;;5100757;28;20147;-73
2023/02/17 02:22:39;;;;;;;11.77;6.30;;;;;;;;;;5100826;28;20044;-70
2023/02/17 02:28:40;;;;;;;12.98;6.72;;;;;;;;;;5100281;28;20097;-72
2023/02/17 02:31:23;;;;;;;12.15;6.57;;;;;;;;;;5101229;28;20130;-72
2023/02/17 02:33:54;;;;;;;12.32;6.47;;;;;;;;;;5102043;28;20476;-72
2023/02/17 02:36:27;;;;;;;15.93;7.32;;;;;;;;;;5100876;28;20087;-71
2023/02/17 02:38:59;;;;;;;12.25;6.13;;;;;;;;;;5101744;28;20043;-72
2023/02/17 02:41:32;;;;;;;16.15;6.68;;;;;;;;;;5102284;28;20043;-72
2023/02/17 02:43:59;;;;;;;14.18;6.50;;;;;;;;;;5103937;28;20054;-71
2023/02/17 02:46:25;;;;;;;16.13;7.30;;;;;;;;;;5104540;28;20044;-72
2023/02/17 02:48:53;;;;;;;14.75;6.97;;;;;;;;;;5103222;28;20046;-72
2023/02/17 02:51:31;;;;;;;14.82;7.10;;;;;;;;;;5102081;28;20051;-72
2023/02/17 02:54:17;;;;;;;12.98;6.07;;;;;;;;;;5103394;28;20039;-72
2023/02/17 02:57:05;;;;;;;14.15;6.72;;;;;;;;;;5105485;28;20074;-72
2023/02/17 02:59:44;;;;;;;12.55;6.75;;;;;;;;;;5102874;28;20044;-72
2023/02/17 03:02:17;;;;;;;11.73;6.40;;;;;;;;;;5101475;28;20044;-72
2023/02/17 03:04:52;;;;;;;12.68;6.68;;;;;;;;;;5100689;28;20043;-72
2023/02/17 03:07:24;;;;;;;11.80;6.05;;;;;;;;;;5101602;28;20044;-72
2023/02/17 03:09:53;;;;;;;14.60;6.45;;;;;;;;;;5100018;28;20127;-71
2023/02/17 03:12:20;;;;;;;12.40;7.28;;;;;;;;;;5100252;28;20475;-71
2023/02/17 03:14:49;;;;;;;12.88;6.75;;;;;;;;;;5100551;28;20056;-72
2023/02/17 03:17:16;;;;;;;13.02;6.45;;;;;;;;;;5100693;28;20039;-71
2023/02/17 03:19:44;;;;;;;11.45;6.43;;;;;;;;;;5101176;28;20039;-71
2023/02/17 03:22:19;;;;;;;12.35;5.78;;;;;;;;;;5099772;28;20043;-71
2023/02/17 03:24:46;;;;;;;12.95;6.13;;;;;;;;;;5101719;28;20050;-71
2023/02/17 03:27:12;;;;;;;13.13;7.93;;;;;;;;;;5101434;28;20460;-71
2023/02/17 03:29:39;;;;;;;14.60;6.60;;;;;;;;;;5100692;28;20039;-71
2023/02/17 03:32:07;;;;;;;11.90;5.70;;;;;;;;;;5100170;28;20040;-71
2023/02/17 03:34:33;;;;;;;13.77;5.30;;;;;;;;;;5100539;28;20069;-71
2023/02/17 03:37:00;;;;;;;15.13;6.50;;;;;;;;;;5100257;28;20050;-71
2023/02/17 03:39:28;;;;;;;12.10;5.93;;;;;;;;;;5100015;28;20050;-71
2023/02/17 03:41:55;;;;;;;11.57;5.82;;;;;;;;;;5100442;28;20482;-71
2023/02/17 03:44:24;;;;;;;11.00;5.95;;;;;;;;;;5100234;28;20043;-71
2023/02/17 03:46:50;;;;;;;11.23;5.78;;;;;;;;;;5099555;28;20097;-71
2023/02/17 03:49:17;;;;;;;11.13;6.05;;;;;;;;;;5099189;28;20062;-71
2023/02/17 03:51:44;;;;;;;11.70;5.57;;;;;;;;;;5099302;28;20516;-71
2023/02/17 03:54:10;;;;;;;8.73;5.25;;;;;;;;;;5101117;28;20044;-71
2023/02/17 03:56:38;;;;;;;11.15;5.95;;;;;;;;;;5099276;28;20051;-71
2023/02/17 03:59:05;;;;;;;14.07;5.72;;;;;;;;;;5100039;28;20178;-70
2023/02/17 04:01:32;;;;;;;9.90;6.00;;;;;;;;;;5099639;28;20127;-72
2023/02/17 04:03:58;;;;;;;11.80;5.57;;;;;;;;;;5098883;28;20143;-72
2023/02/17 04:06:25;;;;;;;11.88;5.13;;;;;;;;;;5099256;28;20035;-72
2023/02/17 04:08:52;;;;;;;12.73;6.35;;;;;;;;;;5099257;28;20135;-71
2023/02/17 04:11:18;;;;;;;8.88;5.22;;;;;;;;;;5098843;28;20325;-72
2023/02/17 04:13:46;;;;;;;12.55;4.70;;;;;;;;;;5098889;28;20138;-71
2023/02/17 04:16:13;;;;;;;12.90;5.03;;;;;;;;;;5100893;28;20035;-72
2023/02/17 04:18:39;;;;;;;10.23;5.32;;;;;;;;;;5098554;28;20045;-72
2023/02/17 04:21:06;;;;;;;9.63;5.00;;;;;;;;;;5098027;28;20046;-72
2023/02/17 04:23:34;;;;;;;13.13;5.63;;;;;;;;;;5099079;28;20044;-71
2023/02/17 04:26:01;;;;;;;12.55;5.63;;;;;;;;;;5099138;28;20413;-71
2023/02/17 04:28:27;;;;;;;7.20;4.38;;;;;;;;;;5099133;28;20046;-71
2023/02/17 04:30:58;;;;;;;8.70;4.50;;;;;;;;;;5099039;28;20062;-71
2023/02/17 04:33:25;;;;;;;8.82;4.75;;;;;;;;;;5100435;28;20039;-72
2023/02/17 04:35:52;;;;;;;10.30;4.50;;;;;;;;;;5099787;28;20040;-72
2023/02/17 04:38:19;;;;;;;8.98;4.40;;;;;;;;;;5098471;28;20039;-72
2023/02/17 04:40:46;;;;;;;8.18;4.93;;;;;;;;;;5099626;28;20085;-71
2023/02/17 04:43:12;;;;;;;8.00;4.03;;;;;;;;;;5099217;28;20057;-71
2023/02/17 04:45:39;;;;;;;9.38;4.53;;;;;;;;;;5101630;28;20047;-71
2023/02/17 04:48:07;;;;;;;9.55;4.00;;;;;;;;;;5098707;28;20044;-71
2023/02/17 04:50:33;;;;;;;10.38;4.45;;;;;;;;;;5100202;28;20063;-71
2023/02/17 04:53:00;;;;;;;9.38;4.47;;;;;;;;;;5098862;28;20063;-71
2023/02/17 04:55:28;;;;;;;10.65;4.70;;;;;;;;;;5098674;28;20075;-71
2023/02/17 04:57:55;;;;;;;7.85;4.55;;;;;;;;;;5099842;28;20127;-71
2023/02/17 05:00:22;;;;;;;10.02;4.43;;;;;;;;;;5098954;28;20044;-71
2023/02/17 05:02:48;;;;;;;10.13;4.05;;;;;;;;;;5098197;28;20040;-71
2023/02/17 05:05:17;;;;;;;9.48;4.20;;;;;;;;;;5100281;28;20047;-71
2023/02/17 05:07:44;;;;;;;9.68;4.32;;;;;;;;;;5098666;28;20056;-71
2023/02/17 05:10:11;;;;;;;9.40;4.80;;;;;;;;;;5099166;28;20048;-71
2023/02/17 05:12:38;;;;;;;9.18;4.25;;;;;;;;;;5099854;28;20059;-71
2023/02/17 05:15:06;;;;;;;9.80;4.07;;;;;;;;;;5098964;28;21496;-71
2023/02/17 05:17:33;;;;;;;8.95;4.75;;;;;;;;;;5098342;28;20134;-71
2023/02/17 05:20:00;;;;;;;15.25;5.13;;;;;;;;;;5098977;28;20074;-71
2023/02/17 05:22:28;;;;;;;9.65;4.65;;;;;;;;;;5100494;28;20060;-71
2023/02/17 05:24:55;;;;;;;9.43;4.70;;;;;;;;;;5098507;28;20517;-72
2023/02/17 05:27:21;;;;;;;9.40;4.75;;;;;;;;;;5098432;28;20040;-71
2023/02/17 05:29:48;;;;;;;8.38;4.22;;;;;;;;;;5099209;28;20040;-71
2023/02/17 05:32:15;;;;;;;9.85;4.50;;;;;;;;;;5100502;28;20048;-70
2023/02/17 05:34:42;;;;;;;8.77;4.22;;;;;;;;;;5102441;28;20105;-71
2023/02/17 05:37:08;;;;;;;9.70;4.40;;;;;;;;;;5101613;28;20527;-71
2023/02/17 05:39:36;;;;;;;8.70;4.93;;;;;;;;;;5101772;28;20048;-71
2023/02/17 05:42:03;;;;;;;9.57;4.72;;;;;;;;;;5102766;28;20743;-71
2023/02/17 05:44:30;;;;;;;9.50;4.00;;;;;;;;;;5104076;28;20130;-71
2023/02/17 05:46:57;;;;;;;10.60;4.68;;;;;;;;;;5101846;28;20056;-71
2023/02/17 05:49:23;;;;;;;12.45;4.57;;;;;;;;;;5102063;28;20074;-72
2023/02/17 05:51:50;;;;;;;8.52;4.30;;;;;;;;;;5103301;28;20075;-71
2023/02/17 05:54:17;;;;;;;11.55;5.25;;;;;;;;;;5102408;28;20486;-71
2023/02/17 05:56:45;;;;;;;9.80;4.40;;;;;;;;;;5104071;28;20379;-72
2023/02/17 05:59:11;;;;;;;8.98;4.57;;;;;;;;;;5102495;28;20048;-72
2023/02/17 06:01:38;;;;;;;12.45;5.20;;;;;;;;;;5102602;28;20056;-72
2023/02/17 06:04:05;;;;;;;8.20;4.13;;;;;;;;;;5102637;28;20048;-71
2023/02/17 06:06:31;;;;;;;10.18;4.60;;;;;;;;;;5103307;28;20040;-72
2023/02/17 06:08:58;;;;;;;9.27;4.68;;;;;;;;;;5103402;28;20036;-72
2023/02/17 06:11:25;;;;;;;10.55;4.57;;;;;;;;;;5103196;28;20147;-72
2023/02/17 06:13:53;;;;;;;9.55;4.22;;;;;;;;;;5103512;28;20054;-72
2023/02/17 06:16:19;;;;;;;8.98;4.22;;;;;;;;;;5102557;28;20050;-72
2023/02/17 06:18:46;;;;;;;9.35;4.03;;;;;;;;;;5103489;28;20046;-71
2023/02/17 06:21:13;;;;;;;11.30;4.78;;;;;;;;;;5103020;28;20036;-71
2023/02/17 06:23:39;;;;;;;8.25;4.20;;;;;;;;;;5103684;28;20048;-71
2023/02/17 06:26:06;;;;;;;9.13;4.47;;;;;;;;;;5101229;28;20058;-70
2023/02/17 06:28:32;;;;;;;9.90;4.20;;;;;;;;;;5102600;28;20051;-70
2023/02/17 06:31:00;;;;;;;9.68;4.00;;;;;;;;;;5102580;28;20050;-71
2023/02/17 06:33:27;;;;;;;9.00;4.30;;;;;;;;;;5102623;28;20044;-71
2023/02/17 06:35:54;;;;;;;11.32;4.78;;;;;;;;;;5102374;28;20052;-70
2023/02/17 06:38:20;;;;;;;10.18;4.47;;;;;;;;;;5102343;28;20517;-70
2023/02/17 06:40:47;;;;;;;8.52;4.20;;;;;;;;;;5101822;28;20063;-69
2023/02/17 06:43:14;;;;;;;12.25;4.63;;;;;;;;;;5101196;28;20047;-70
2023/02/17 06:45:40;;;;;;;10.00;5.10;;;;;;;;;;5100969;28;20130;-71
2023/02/17 06:48:08;;;;;;;11.30;4.50;;;;;;;;;;5103075;28;20064;-69
2023/02/17 06:50:35;;;;;;;10.45;4.75;;;;;;;;;;5101440;28;20171;-69
2023/02/17 06:53:02;;;;;;;10.57;4.32;;;;;;;;;;5095446;28;20047;-70
2023/02/17 06:55:28;;;;;;;7.70;4.55;;;;;;;;;;5094169;28;20127;-71
2023/02/17 06:57:55;;;;;;;10.70;4.22;;;;;;;;;;5093928;28;20046;-71
2023/02/17 07:00:22;;;;;;;9.55;4.10;;;;;;;;;;5094350;28;20056;-70
2023/02/17 07:02:49;;;;;;;9.15;4.22;;;;;;;;;;5094055;28;20130;-71
2023/02/17 07:05:17;;;;;;;12.73;4.35;;;;;;;;;;5093762;28;20516;-71
2023/02/17 07:07:43;;;;;;;10.80;4.07;;;;;;;;;;5094242;28;20146;-70
2023/02/17 07:10:11;;;;;;;7.38;4.72;;;;;;;;;;5094289;28;20079;-71
2023/02/17 07:12:37;;;;;;;7.25;4.40;;;;;;;;;;5094665;28;20055;-70
2023/02/17 07:15:05;;;;;;;13.32;4.88;;;;;;;;;;5093923;28;20586;-70
2023/02/17 07:17:32;;;;;;;11.07;3.90;;;;;;;;;;5100369;28;20528;-70
2023/02/17 07:19:58;;;;;;;9.80;3.47;;;;;;;;;;5096440;22;20351;-75
2023/02/17 07:22:26;;;;;;;9.80;4.25;;;;;;;;;;5049054;28;20049;-72
2023/02/17 07:24:53;;;;;;;11.43;3.97;;;;;;;;;;5052888;28;20128;-74
2023/02/17 07:27:20;;;;;;;13.55;4.70;;;;;;;;;;5053050;28;20059;-74
2023/02/17 07:29:46;;;;;;;7.90;3.65;;;;;;;;;;5056929;28;20052;-73
2023/02/17 07:32:13;;;;;;;14.10;3.83;;;;;;;;;;5033272;28;20044;-74
2023/02/17 07:34:40;;;;;;;11.38;4.13;;;;;;;;;;5033406;28;20132;-73
2023/02/17 07:37:07;;;;;;;12.65;4.07;;;;;;;;;;5033423;28;20064;-74
2023/02/17 07:39:35;;;;;;;12.25;4.22;;;;;;;;;;5033307;28;20137;-74
2023/02/17 07:42:03;;;;;;;10.45;3.75;;;;;;;;;;5049504;28;20049;-73
2023/02/17 07:44:30;;;;;;;12.35;3.95;;;;;;;;;;5032863;28;20051;-74
2023/02/17 07:46:57;;;;;;;10.15;3.60;;;;;;;;;;5033411;28;20056;-74
2023/02/17 07:49:24;;;;;;;7.90;3.88;;;;;;;;;;5033079;28;20129;-74
2023/02/17 07:51:51;;;;;;;9.35;4.57;;;;;;;;;;5032438;28;20053;-75
2023/02/17 07:54:17;;;;;;;8.50;3.72;;;;;;;;;;5032969;28;20496;-75
2023/02/17 07:56:45;;;;;;;9.85;3.85;;;;;;;;;;5033143;28;20053;-74
2023/02/17 07:59:13;;;;;;;14.07;4.15;;;;;;;;;;5033030;28;20075;-74
2023/02/17 08:01:40;;;;;;;10.05;3.92;;;;;;;;;;5032273;28;20455;-73
2023/02/17 08:04:07;;;;;;;9.88;4.55;;;;;;;;;;5032588;28;20068;-73
2023/02/17 08:06:33;;;;;;;10.85;4.13;;;;;;;;;;5046246;28;20045;-74
2023/02/17 08:14:32;;;;;;;11.38;4.15;;;;;;;;;;5032380;28;20053;-73
2023/02/17 08:16:59;;;;;;;8.95;3.83;;;;;;;;;;5034694;28;20045;-73
2023/02/17 08:19:26;;;;;;;10.18;4.28;;;;;;;;;;5052580;28;20132;-74
2023/02/17 08:21:53;;;;;;;12.90;3.97;;;;;;;;;;5056949;28;20523;-74
2023/02/17 08:24:20;;;;;;;7.25;3.47;;;;;;;;;;5057588;28;20133;-75
2023/02/17 08:26:48;;;;;;;13.25;3.92;;;;;;;;;;5058251;28;20049;-74
2023/02/17 08:29:15;;;;;;;10.00;4.43;;;;;;;;;;5038145;28;20140;-75
2023/02/17 08:31:42;;;;;;;10.20;4.00;;;;;;;;;;5038256;28;20109;-74
2023/02/17 08:34:11;;;;;;;8.23;3.83;;;;;;;;;;5043486;28;20396;-75
2023/02/17 08:36:39;;;;;;;10.10;3.88;;;;;;;;;;5057480;28;20081;-74
2023/02/17 08:39:06;;;;;;;10.10;4.55;;;;;;;;;;5048441;28;20076;-74
2023/02/17 08:41:35;;;;;;;12.60;5.00;;;;;;;;;;5055202;28;20102;-74
2023/02/17 08:44:06;;;;;;;10.32;4.13;;;;;;;;;;5053731;28;20128;-76
2023/02/17 08:46:35;;;;;;;8.95;4.13;;;;;;;;;;5036683;28;20466;-76
2023/02/17 08:49:02;;;;;;;8.48;3.65;;;;;;;;;;5038098;28;20045;-75
2023/02/17 08:51:29;;;;;;;8.43;3.65;;;;;;;;;;5045531;28;20140;-74
2023/02/17 08:53:58;;;;;;;10.52;4.03;;;;;;;;;;5042516;28;20647;-76
2023/02/17 08:56:26;;;;;;;10.15;4.47;;;;;;;;;;5040230;28;20085;-76
2023/02/17 08:58:52;;;;;;;7.80;4.10;;;;;;;;;;5042913;28;20045;-75
2023/02/17 09:01:21;;;;;;;9.60;3.90;;;;;;;;;;5034203;28;20084;-81
2023/02/17 09:03:49;;;;;;;14.13;4.30;;;;;;;;;;5045284;28;20086;-74
2023/02/17 09:06:17;;;;;;;8.50;4.15;;;;;;;;;;5044412;28;20076;-75
2023/02/17 09:08:44;;;;;;;9.55;4.50;;;;;;;;;;5053740;28;20049;-75
2023/02/17 09:11:14;;;;;;;14.60;4.30;;;;;;;;;;5058389;28;20049;-80
2023/02/17 09:13:41;;;;;;;8.93;3.47;;;;;;;;;;5054790;28;20104;-76
2023/02/17 09:16:07;;;;;;;10.57;4.45;;;;;;;;;;5042397;28;20049;-77
2023/02/17 09:18:36;;;;;;;14.02;5.28;;;;;;;;;;5041345;28;20535;-78
2023/02/17 09:21:06;;;;;;;7.28;3.63;;;;;;;;;;5038024;28;20041;-79
2023/02/17 09:23:32;;;;;;;10.13;4.00;;;;;;;;;;5047540;28;20065;-74
2023/02/17 09:26:04;;;;;;;11.40;3.85;;;;;;;;;;5035460;28;20132;-77
2023/02/17 09:28:31;;;;;;;9.50;4.22;;;;;;;;;;5040981;28;20052;-76
2023/02/17 09:30:58;;;;;;;13.07;3.70;;;;;;;;;;5043669;28;20128;-76
2023/02/17 09:33:24;;;;;;;11.20;4.05;;;;;;;;;;5036864;28;20045;-77
2023/02/17 09:35:53;;;;;;;10.95;4.25;;;;;;;;;;5039362;28;20099;-76
2023/02/17 09:38:19;;;;;;;10.13;4.15;;;;;;;;;;5035539;28;20081;-75
2023/02/17 09:40:48;;;;;;;8.75;4.05;;;;;;;;;;5034411;28;20153;-76
2023/02/17 09:43:17;;;;;;;10.48;4.18;;;;;;;;;;5033467;28;20049;-77
2023/02/17 09:45:49;;;;;;;9.15;3.88;;;;;;;;;;5042162;28;20049;-76
2023/02/17 09:48:19;;;;;;;12.48;4.50;;;;;;;;;;5034168;28;20073;-76
2023/02/17 09:50:50;;;;;;;12.82;5.35;;;;;;;;;;5034381;28;20482;-76
2023/02/17 09:53:25;;;;;;;9.38;3.95;;;;;;;;;;5033705;28;20488;-76
2023/02/17 09:55:53;;;;;;;10.60;3.78;;;;;;;;;;5041447;28;20052;-76
2023/02/17 09:58:25;;;;;;;9.57;3.60;;;;;;;;;;5037993;28;20049;-75
2023/02/17 10:00:55;;;;;;;12.50;4.07;;;;;;;;;;5054396;28;20109;-76
2023/02/17 10:03:26;;;;;;;8.82;3.97;;;;;;;;;;5054145;28;20104;-76
2023/02/17 10:06:02;;;;;;;11.00;3.72;;;;;;;;;;5045373;28;20665;-75
2023/02/17 10:08:35;;;;;;;9.52;3.85;;;;;;;;;;5054560;28;20052;-76
2023/02/17 10:11:08;;;;;;;12.75;4.15;;;;;;;;;;5055347;28;20127;-78
2023/02/17 10:13:39;;;;;;;9.10;4.10;;;;;;;;;;5039018;28;20128;-76
2023/02/17 10:16:11;;;;;;;10.52;3.88;;;;;;;;;;5040895;28;20076;-76
2023/02/17 10:18:44;;;;;;;9.65;4.30;;;;;;;;;;5052797;28;20127;-76
2023/02/17 10:21:14;;;;;;;8.88;4.03;;;;;;;;;;5053024;28;20075;-76
2023/02/17 10:23:44;;;;;;;10.32;4.22;;;;;;;;;;5041517;28;20065;-76
2023/02/17 10:26:20;;;;;;;8.27;3.42;;;;;;;;;;5041880;28;20128;-77
2023/02/17 10:28:51;;;;;;;9.23;3.47;;;;;;;;;;5042175;28;20091;-75
2023/02/17 10:31:26;;;;;;;10.60;4.20;;;;;;;;;;5037236;28;20048;-76
2023/02/17 10:34:01;;;;;;;10.68;4.10;;;;;;;;;;5034580;28;20053;-76
2023/02/17 10:36:35;;;;;;;9.05;3.88;;;;;;;;;;5036561;28;20524;-75
2023/02/17 10:39:09;;;;;;;10.15;4.05;;;;;;;;;;5034853;28;20055;-75
2023/02/17 10:41:37;;;;;;;9.10;3.80;;;;;;;;;;5050955;28;20052;-76
2023/02/17 10:44:08;;;;;;;13.10;4.40;;;;;;;;;;5053462;28;20065;-76
2023/02/17 10:46:35;;;;;;;11.40;4.50;;;;;;;;;;5053208;28;20132;-77
2023/02/17 10:49:02;;;;;;;17.85;3.80;;;;;;;;;;5057149;28;20119;-77
2023/02/17 10:51:31;;;;;;;8.10;3.35;;;;;;;;;;5036280;28;20056;-76
2023/02/17 10:54:03;;;;;;;9.40;3.50;;;;;;;;;;5035673;28;20063;-74
2023/02/17 10:56:37;;;;;;;15.68;4.90;;;;;;;;;;5024477;28;20053;-77
2023/02/17 10:59:07;;;;;;;8.75;4.07;;;;;;;;;;5034849;28;20419;-76
2023/02/17 11:01:34;;;;;;;13.18;4.22;;;;;;;;;;5034630;28;20124;-76
2023/02/17 11:04:02;;;;;;;13.95;4.03;;;;;;;;;;5032846;28;20091;-76
2023/02/17 11:06:29;;;;;;;9.27;3.40;;;;;;;;;;5045678;28;20106;-77
2023/02/17 11:08:59;;;;;;;10.75;3.28;;;;;;;;;;5054191;28;20045;-75
2023/02/17 11:11:29;;;;;;;11.27;4.53;;;;;;;;;;5052756;28;20128;-76
2023/02/17 11:14:03;;;;;;;11.10;3.42;;;;;;;;;;5049378;28;20106;-76
2023/02/17 11:16:35;;;;;;;9.73;3.53;;;;;;;;;;5048839;28;20116;-76
2023/02/17 11:19:02;;;;;;;6.93;4.05;;;;;;;;;;5032713;28;20041;-75
2023/02/17 11:21:32;;;;;;;8.73;3.50;;;;;;;;;;5033016;28;20045;-77
2023/02/17 11:24:01;;;;;;;6.90;2.85;;;;;;;;;;5032932;28;20077;-76
2023/02/17 11:26:29;;;;;;;9.70;3.10;;;;;;;;;;5046018;28;20052;-76
2023/02/17 11:29:07;;;;;;;7.93;3.38;;;;;;;;;;5054998;28;20067;-76
2023/02/17 11:31:34;;;;;;;7.82;3.30;;;;;;;;;;5038771;28;20052;-75
2023/02/17 11:34:11;;;;;;;6.93;3.20;;;;;;;;;;5034119;28;20484;-76
2023/02/17 11:36:38;;;;;;;8.05;3.05;;;;;;;;;;5033500;28;20081;-75
2023/02/17 11:39:17;;;;;;;7.57;3.30;;;;;;;;;;5033865;28;20056;-76
2023/02/17 11:41:44;;;;;;;12.30;3.97;;;;;;;;;;5054001;28;20077;-76
2023/02/17 11:44:22;;;;;;;8.63;3.00;;;;;;;;;;5048049;28;20762;-75
2023/02/17 11:46:55;;;;;;;6.22;3.00;;;;;;;;;;5034139;28;20073;-76
2023/02/17 11:49:45;;;;;;;6.65;2.83;;;;;;;;;;5032031;28;20053;-75
2023/02/17 11:52:21;;;;;;;7.28;3.13;;;;;;;;;;5034862;28;20491;-76
2023/02/17 11:55:02;;;;;;;6.15;2.95;;;;;;;;;;5033883;28;20109;-77
2023/02/17 11:57:38;;;;;;;10.27;3.95;;;;;;;;;;5033307;28;20100;-75
2023/02/17 12:00:19;;;;;;;7.47;3.03;;;;;;;;;;5032796;28;20077;-76
2023/02/17 12:03:06;;;;;;;7.88;2.83;;;;;;;;;;5034813;28;20041;-76
2023/02/17 12:05:49;;;;;;;6.90;2.83;;;;;;;;;;5025784;28;20049;-78
2023/02/17 12:08:23;;;;;;;7.07;2.83;;;;;;;;;;5054313;28;20076;-76
2023/02/17 12:11:04;;;;;;;6.88;3.30;;;;;;;;;;5055054;28;20108;-77
2023/02/17 12:13:41;;;;;;;13.82;3.83;;;;;;;;;;5054068;28;20127;-78
2023/02/17 12:16:25;;;;;;;8.77;3.65;;;;;;;;;;5052875;28;20136;-77
2023/02/17 12:19:02;;;;;;;8.07;3.35;;;;;;;;;;5052630;28;20131;-77
2023/02/17 12:21:52;;;;;;;9.63;3.75;;;;;;;;;;5053568;28;20048;-77
2023/02/17 12:24:32;;;;;;;9.97;3.50;;;;;;;;;;5052682;28;20132;-77
2023/02/17 12:27:06;;;;;;;11.05;4.30;;;;;;;;;;5052120;28;20055;-76
2023/02/17 12:29:53;;;;;;;8.38;2.88;;;;;;;;;;5052391;28;20041;-76
2023/02/17 12:32:34;;;;;;;8.32;2.80;;;;;;;;;;5052317;28;20136;-75
2023/02/17 12:35:05;;;;;;;13.35;3.45;;;;;;;;;;5035916;28;20049;-75
2023/02/17 12:37:35;;;;;;;6.68;2.90;;;;;;;;;;5035134;28;20041;-74
2023/02/17 12:40:04;;;;;;;;;;;;;;;;;;5044917;28;20059;-77
2023/02/17 12:42:35;;;;;;;7.78;3.10;;;;;;;;;;5036083;28;19921;-76
2023/02/17 12:45:05;;;;;;;10.57;3.28;;;;;;;;;;5039893;28;20151;-77
2023/02/17 12:47:38;;;;;;;5.85;2.80;;;;;;;;;;5044042;28;20052;-77
2023/02/17 12:50:14;;;;;;;6.03;2.90;;;;;;;;;;5048684;28;20098;-76
2023/02/17 12:52:46;;;;;;;7.22;2.92;;;;;;;;;;5056704;28;20072;-76
2023/02/17 12:55:17;;;;;;;8.57;3.00;;;;;;;;;;5037840;28;20045;-77
2023/02/17 12:57:52;;;;;;;11.02;3.28;;;;;;;;;;5052985;28;20071;-76
2023/02/17 13:00:22;;;;;;;9.50;3.70;;;;;;;;;;5016762;28;20766;-76
2023/02/17 13:02:50;;;;;;;6.68;2.97;;;;;;;;;;5016997;28;20073;-74
2023/02/17 13:05:24;;;;;;;8.80;3.22;;;;;;;;;;5022696;28;20045;-75
2023/02/17 13:07:58;;;;;;;6.32;2.80;;;;;;;;;;5055391;28;20049;-76
2023/02/17 13:10:33;;;;;;;8.45;3.67;;;;;;;;;;5056307;28;20045;-75
2023/02/17 13:13:02;;;;;;;10.20;3.00;;;;;;;;;;5054665;28;20554;-76
2023/02/17 13:15:36;;;;;;;13.50;4.43;;;;;;;;;;5036975;28;20045;-77
2023/02/17 13:18:05;;;;;;;8.20;3.08;;;;;;;;;;5038551;28;20107;-79
2023/02/17 13:20:51;;;;;;;4.60;2.78;;;;;;;;;;5036892;28;20081;-76
2023/02/17 13:23:34;;;;;;;6.40;3.20;;;;;;;;;;5036236;28;20073;-76
2023/02/17 13:26:06;;;;;;;9.20;3.25;;;;;;;;;;5030949;28;20058;-75
2023/02/17 13:28:36;;;;;;;5.53;2.80;;;;;;;;;;5030733;28;20124;-75
2023/02/17 13:31:11;;;;;;;7.03;2.60;;;;;;;;;;5031423;28;20044;-76
2023/02/17 13:33:45;;;;;;;10.60;3.38;;;;;;;;;;5036386;28;20041;-75
2023/02/17 13:36:19;;;;;;;7.32;2.58;;;;;;;;;;5030549;28;20046;-76
2023/02/17 13:39:00;;;;;;;10.35;3.70;;;;;;;;;;5044162;28;20049;-76
2023/02/17 13:41:27;;;;;;;;;;;;;;;;;;5050602;28;20049;-76
2023/02/17 13:43:53;;;;;;;6.18;3.03;;;;;;;;;;5051066;28;19931;-76
2023/02/17 13:46:23;;;;;;;6.63;2.60;;;;;;;;;;5048371;28;20049;-79
2023/02/17 13:49:01;;;;;;;8.75;3.60;;;;;;;;;;5032676;28;20088;-80
2023/02/17 13:51:30;;;;;;;5.90;2.60;;;;;;;;;;5035484;28;20045;-78
2023/02/17 13:53:56;;;;;;;7.88;3.08;;;;;;;;;;5033137;28;20476;-77
2023/02/17 13:56:26;;;;;;;8.13;3.17;;;;;;;;;;5033962;28;20511;-75
2023/02/17 13:58:53;;;;;;;10.38;3.35;;;;;;;;;;5034134;28;20049;-77
2023/02/17 14:01:24;;;;;;;9.70;3.00;;;;;;;;;;5033951;28;20432;-76
2023/02/17 14:03:53;;;;;;;9.43;3.35;;;;;;;;;;5034301;28;20149;-76
2023/02/17 14:06:26;;;;;;;6.15;3.00;;;;;;;;;;5033583;28;20063;-78
2023/02/17 14:08:53;;;;;;;9.63;3.28;;;;;;;;;;5033626;28;20056;-76
2023/02/17 14:11:23;;;;;;;6.53;2.90;;;;;;;;;;5035674;28;20141;-77
2023/02/17 14:13:51;;;;;;;5.97;2.78;;;;;;;;;;5033653;28;20200;-76
2023/02/17 14:16:28;;;;;;;7.32;3.10;;;;;;;;;;5033769;28;20077;-77
2023/02/17 14:19:02;;;;;;;7.30;3.25;;;;;;;;;;5033631;28;20076;-75
2023/02/17 14:21:30;;;;;;;9.65;3.25;;;;;;;;;;5033594;28;20052;-77
2023/02/17 14:23:59;;;;;;;8.15;3.75;;;;;;;;;;5033357;28;20132;-77
2023/02/17 14:26:37;;;;;;;6.80;3.10;;;;;;;;;;5033851;28;20049;-77
2023/02/17 14:29:06;;;;;;;8.18;3.15;;;;;;;;;;5034184;28;20049;-78
2023/02/17 14:31:38;;;;;;;9.15;2.95;;;;;;;;;;5033654;28;20064;-76
2023/02/17 14:34:06;;;;;;;7.57;2.78;;;;;;;;;;5033537;28;20099;-76
2023/02/17 14:36:36;;;;;;;8.20;3.15;;;;;;;;;;5031567;28;20408;-77
2023/02/17 14:39:04;;;;;;;6.60;2.80;;;;;;;;;;5041057;28;20045;-76
2023/02/17 14:41:31;;;;;;;6.63;2.90;;;;;;;;;;5031609;28;20096;-76
2023/02/17 14:43:59;;;;;;;6.72;3.22;;;;;;;;;;5048440;28;20514;-76
2023/02/17 14:46:26;;;;;;;7.57;2.97;;;;;;;;;;5037862;28;20081;-76
2023/02/17 14:48:53;;;;;;;8.80;2.80;;;;;;;;;;5031635;28;20121;-75
2023/02/17 14:51:22;;;;;;;10.02;3.03;;;;;;;;;;5032609;28;20131;-78
2023/02/17 14:53:51;;;;;;;8.05;3.28;;;;;;;;;;5041802;28;20128;-76
2023/02/17 14:56:24;;;;;;;6.28;3.13;;;;;;;;;;5032870;28;20132;-76
2023/02/17 14:58:51;;;;;;;7.93;3.13;;;;;;;;;;5033440;28;20049;-76